Central Il Rgnl Arpt at Bloomington-Normal Airport
KBMI : now visible

Airfield :











YOU CAN JOIN US ON...

 
LOGIN :

Register | Disclaimer

   EN    FR    IT 

 









Legend :    VFR   Marginal VFR   IFR   Intensive IFR   Very Intensive IFR
Visi :
Ceiling :
>= 8 km
>= 3000ft
5 to 8 km
1000 to 3000 ft
1500m to 5 km
500 to 1000 ft
800 to 1500m
200 to 500 ft
< 800m
< 200 ft
Symbols :   Thunderstorms  Fog  Heavy snow  Heavy precipitations  Wind > 20 kt






- Airport Elevation : 871 ft
- IATA code : BMI


KBMI - Central Il Rgnl Arpt at Bloomington-Normal

CURRENT METAR :
  • 280856Z AUTO 32005KT 10SM FEW095 BKN120 M07/M09 A3006 RMK AO2 SLP187 T10671094 58009

EXPIRED METARs :
  • 280756Z AUTO 32007KT 10SM CLR M06/M08 A3007 RMK AO2 SLP191 T10611083
  • 280656Z AUTO 33005KT 10SM CLR M06/M08 A3008 RMK AO2 SLP193 T10561083

TAF KBMI
Valid from the 28 at 06:00 until the 29 at 06:00 UTC


280523Z 2806/2906 32007KT P6SM FEW250
FM281200 29006KT P6SM OVC040
FM281400 30010KT P6SM VCSH OVC020
FM282300 32010KT P6SM BKN040
FM290100 33009KT P6SM SKC



MET'MAP, your aeronautical weather chart ! - Copyright ORBIFLY December 2007 - Disclaimer

ORBIFLY MET'MAP TEAM :

Programming & Development : Alexandra Zaïnal
Concept & original design : Baudouin d'Aumeries
Assistance for programming : Marc-Olivier Méhu
Technical & hardware support : Manuel Goepfert

Contact : metmap@orbifly.com




SOURCES & CREDITS :

   NOAA       Earth
Advisory